Time;durP1;ratioP1;P1;durP2;ratioP2;P2;SDS_P1;SDS_P2;PMS_P1;PMS_P2;Temp;Humidity;BMP_temperature;BMP_pressure;BME280_temperature;BME280_humidity;BME280_pressure;Samples;Min_cycle;Max_cycle;Signal;HPM_P1;HPM_P2
2022/10/25 00:01:48;;;;;;;4.90;2.50;;;11.90;99.90;;;;;;4933840;29;20510;-73
2022/10/25 00:04:15;;;;;;;4.63;2.13;;;11.90;99.90;;;;;;4933338;29;20505;-73
2022/10/25 00:06:40;;;;;;;4.83;2.20;;;11.90;99.90;;;;;;4932950;29;20434;-73
2022/10/25 00:09:06;;;;;;;4.40;2.20;;;11.80;99.90;;;;;;4933266;29;20415;-73
2022/10/25 00:11:33;;;;;;;2.53;2.17;;;11.80;99.90;;;;;;4932862;29;20834;-73
2022/10/25 00:14:03;;;;;;;4.55;2.30;;;11.90;99.90;;;;;;4932111;29;20794;-73
2022/10/25 00:16:32;;;;;;;8.73;2.47;;;11.90;99.90;;;;;;4932873;29;20408;-73
2022/10/25 00:18:58;;;;;;;2.33;2.00;;;11.90;99.90;;;;;;4936413;29;20513;-73
2022/10/25 00:21:24;;;;;;;5.70;2.55;;;11.90;99.90;;;;;;4933608;28;20525;-73
2022/10/25 00:23:50;;;;;;;2.65;2.25;;;11.80;99.90;;;;;;4932557;29;20450;-73
2022/10/25 00:26:16;;;;;;;4.40;2.70;;;11.80;99.90;;;;;;4936801;29;20765;-73
2022/10/25 00:28:42;;;;;;;3.13;2.05;;;11.80;99.90;;;;;;4933706;29;20526;-73
2022/10/25 00:31:13;;;;;;;4.05;1.95;;;11.80;99.90;;;;;;4932560;29;20420;-73
2022/10/25 00:33:39;;;;;;;4.22;2.30;;;11.80;99.90;;;;;;4935139;29;20419;-74
2022/10/25 00:36:17;;;;;;;5.40;2.30;;;11.80;99.90;;;;;;4931639;29;20925;-74
2022/10/25 00:38:44;;;;;;;4.50;2.20;;;11.90;99.90;;;;;;4928090;29;20419;-73
2022/10/25 00:41:12;;;;;;;4.32;2.05;;;11.80;99.90;;;;;;4932506;29;20423;-73
2022/10/25 00:43:44;;;;;;;4.63;2.20;;;11.90;99.90;;;;;;4931321;29;20485;-73
2022/10/25 00:46:22;;;;;;;3.25;1.95;;;11.80;99.90;;;;;;4930571;29;20425;-73
2022/10/25 00:49:11;;;;;;;5.60;2.30;;;11.80;99.90;;;;;;4932309;29;20442;-73
2022/10/25 00:52:00;;;;;;;6.50;2.17;;;11.90;99.90;;;;;;4948136;29;20484;-74
2022/10/25 00:54:30;;;;;;;4.95;2.10;;;11.70;99.90;;;;;;4933562;29;20924;-73
2022/10/25 00:57:00;;;;;;;3.60;2.10;;;11.70;99.90;;;;;;4936889;28;21072;-73
2022/10/25 00:59:30;;;;;;;6.97;2.70;;;11.70;99.90;;;;;;4933869;29;20548;-73
2022/10/25 01:01:56;;;;;;;2.50;2.05;;;11.80;99.90;;;;;;4935816;28;20420;-73
2022/10/25 01:04:26;;;;;;;4.03;2.10;;;11.80;99.90;;;;;;4931870;28;20570;-73
2022/10/25 01:06:52;;;;;;;4.72;2.15;;;11.70;99.90;;;;;;4931890;29;20423;-73
2022/10/25 01:09:22;;;;;;;5.85;2.70;;;11.80;99.90;;;;;;4930416;29;20419;-73
2022/10/25 01:11:47;;;;;;;5.38;2.10;;;11.80;99.90;;;;;;4931182;29;20434;-72
2022/10/25 01:14:15;;;;;;;7.00;2.20;;;11.70;99.90;;;;;;4934007;29;20423;-73
2022/10/25 01:16:52;;;;;;;5.70;2.50;;;11.80;99.90;;;;;;4932578;29;20997;-73
2022/10/25 01:20:08;;;;;;;3.97;2.70;;;11.70;99.90;;;;;;4931458;29;20488;-73
2022/10/25 01:22:59;;;;;;;4.93;2.15;;;11.60;99.90;;;;;;4948699;28;20440;-73
2022/10/25 01:26:01;;;;;;;4.03;2.20;;;11.60;99.90;;;;;;4932069;28;20410;-73
2022/10/25 01:28:32;;;;;;;2.95;2.00;;;11.60;99.90;;;;;;4930874;29;20828;-72
2022/10/25 01:31:25;;;;;;;5.00;2.33;;;11.50;99.90;;;;;;4932177;29;20422;-73
2022/10/25 01:33:53;;;;;;;5.90;2.40;;;11.60;99.90;;;;;;4931399;29;20471;-73
2022/10/25 01:36:50;;;;;;;3.40;2.42;;;11.60;99.90;;;;;;4932855;28;20415;-73
2022/10/25 01:39:27;;;;;;;5.60;2.30;;;11.60;99.90;;;;;;4932466;29;20420;-73
2022/10/25 01:42:24;;;;;;;5.25;2.67;;;11.60;99.90;;;;;;4932172;29;20419;-73
2022/10/25 01:45:05;;;;;;;6.90;2.60;;;11.60;99.90;;;;;;4930508;29;20419;-73
2022/10/25 01:47:49;;;;;;;5.75;2.30;;;11.60;99.90;;;;;;4931966;28;20474;-73
2022/10/25 01:50:37;;;;;;;4.15;2.20;;;11.60;99.90;;;;;;4930834;29;20502;-73
2022/10/25 01:53:03;;;;;;;6.07;2.50;;;11.60;99.90;;;;;;4932206;29;20444;-73
2022/10/25 01:55:37;;;;;;;5.60;2.70;;;11.70;99.90;;;;;;4931657;29;20874;-73
2022/10/25 01:58:05;;;;;;;3.30;2.40;;;11.70;99.90;;;;;;4931522;29;20415;-73
2022/10/25 02:00:46;;;;;;;4.10;2.40;;;11.70;99.90;;;;;;4930455;29;20407;-73
2022/10/25 02:03:49;;;;;;;3.47;2.10;;;11.70;99.90;;;;;;4930305;29;20427;-73
2022/10/25 02:06:37;;;;;;;6.20;2.38;;;11.80;99.90;;;;;;4931040;29;20510;-73
2022/10/25 02:09:13;;;;;;;8.88;2.40;;;11.90;99.90;;;;;;4931355;29;20451;-73
2022/10/25 02:11:39;;;;;;;5.80;2.30;;;11.90;99.90;;;;;;4932453;29;20481;-73
2022/10/25 02:14:31;;;;;;;4.38;2.38;;;11.90;99.90;;;;;;4935020;29;20419;-73
2022/10/25 02:17:05;;;;;;;5.78;2.08;;;11.80;99.90;;;;;;4932167;29;20391;-73
2022/10/25 02:19:44;;;;;;;5.27;2.60;;;11.80;99.90;;;;;;4931685;29;20819;-73
2022/10/25 02:22:12;;;;;;;7.70;2.28;;;11.70;99.90;;;;;;4930617;29;20478;-73
2022/10/25 02:24:41;;;;;;;3.30;2.15;;;11.70;99.90;;;;;;4931451;29;20415;-74
2022/10/25 02:27:09;;;;;;;4.93;2.30;;;11.70;99.90;;;;;;4931905;29;20414;-74
2022/10/25 02:29:36;;;;;;;7.30;2.50;;;11.70;99.90;;;;;;4940595;29;20419;-74
2022/10/25 02:32:03;;;;;;;3.67;2.70;;;11.70;99.90;;;;;;4931956;29;20446;-74
2022/10/25 02:34:29;;;;;;;5.95;2.20;;;11.70;99.90;;;;;;4929949;29;20483;-74
2022/10/25 02:36:55;;;;;;;3.90;2.40;;;11.70;99.90;;;;;;4932266;29;20384;-73
2022/10/25 02:39:22;;;;;;;3.73;2.37;;;11.60;99.90;;;;;;4931182;28;20843;-74
2022/10/25 02:41:48;;;;;;;5.80;2.33;;;11.60;99.90;;;;;;4935202;29;20522;-74
2022/10/25 02:44:14;;;;;;;4.93;2.37;;;11.60;99.90;;;;;;4935332;29;20498;-73
2022/10/25 02:46:39;;;;;;;3.28;2.20;;;11.50;99.90;;;;;;4934819;29;20411;-74
2022/10/25 02:49:05;;;;;;;5.00;2.37;;;11.60;99.90;;;;;;4934264;29;20811;-74
2022/10/25 02:51:31;;;;;;;3.60;2.50;;;11.50;99.90;;;;;;4934387;29;20983;-74
2022/10/25 02:53:56;;;;;;;3.90;2.70;;;11.60;99.90;;;;;;4934740;29;20417;-73
2022/10/25 02:56:23;;;;;;;5.73;2.90;;;11.50;99.90;;;;;;4936166;29;20423;-73
2022/10/25 02:58:50;;;;;;;3.78;2.20;;;11.50;99.90;;;;;;4936368;29;20412;-73
2022/10/25 03:01:17;;;;;;;3.20;2.13;;;11.40;99.90;;;;;;4934733;28;20426;-73
2022/10/25 03:03:44;;;;;;;4.70;2.25;;;11.40;99.90;;;;;;4932423;29;20419;-74
2022/10/25 03:06:10;;;;;;;3.60;2.33;;;11.40;99.90;;;;;;4932866;29;21179;-73
2022/10/25 03:08:37;;;;;;;4.38;2.13;;;11.40;99.90;;;;;;4934800;29;20510;-74
2022/10/25 03:11:03;;;;;;;3.28;2.03;;;11.40;99.90;;;;;;4938207;29;20424;-74
2022/10/25 03:13:30;;;;;;;4.63;2.38;;;11.40;99.90;;;;;;4934995;29;20466;-74
2022/10/25 03:15:55;;;;;;;4.10;2.30;;;11.40;99.90;;;;;;4933259;29;20459;-73
2022/10/25 03:18:21;;;;;;;3.10;2.30;;;11.50;99.90;;;;;;4934352;29;20841;-74
2022/10/25 03:20:47;;;;;;;4.40;2.47;;;11.40;99.90;;;;;;4932220;29;20889;-73
2022/10/25 03:23:13;;;;;;;5.25;2.33;;;11.50;99.90;;;;;;4935353;29;20443;-74
2022/10/25 03:25:38;;;;;;;4.50;2.07;;;11.50;99.90;;;;;;4934373;29;20443;-74
2022/10/25 03:28:04;;;;;;;4.83;2.40;;;11.50;99.90;;;;;;4937593;29;20470;-73
2022/10/25 03:30:30;;;;;;;5.47;2.22;;;11.50;99.90;;;;;;4937643;28;20433;-73
2022/10/25 03:32:56;;;;;;;4.70;2.88;;;11.40;99.90;;;;;;4943849;29;20411;-73
2022/10/25 03:35:22;;;;;;;4.00;2.30;;;11.50;99.90;;;;;;4934955;29;20418;-74
2022/10/25 03:37:48;;;;;;;4.03;2.15;;;11.50;99.90;;;;;;4933488;29;20412;-74
2022/10/25 03:40:14;;;;;;;2.63;2.25;;;11.50;99.90;;;;;;4944130;28;20942;-74
2022/10/25 03:42:40;;;;;;;4.03;2.70;;;11.60;99.90;;;;;;4934213;29;20395;-73
2022/10/25 03:45:06;;;;;;;6.80;3.40;;;11.50;99.90;;;;;;4933994;29;20874;-73
2022/10/25 03:47:32;;;;;;;4.07;3.13;;;11.60;99.90;;;;;;4934293;29;20486;-73
2022/10/25 03:49:57;;;;;;;4.10;3.43;;;11.60;99.90;;;;;;4934127;29;20922;-73
2022/10/25 03:52:23;;;;;;;5.07;3.30;;;11.50;99.90;;;;;;4933852;29;20424;-73
2022/10/25 03:54:48;;;;;;;5.25;3.85;;;11.70;99.90;;;;;;4934157;29;20459;-73
2022/10/25 03:57:14;;;;;;;5.60;2.70;;;11.60;99.90;;;;;;4934157;29;20450;-74
2022/10/25 03:59:39;;;;;;;6.07;3.17;;;11.60;99.90;;;;;;4933362;29;20524;-73
2022/10/25 04:02:05;;;;;;;3.70;2.53;;;11.60;99.90;;;;;;4934832;29;20559;-75
2022/10/25 04:04:31;;;;;;;6.15;2.30;;;11.50;99.90;;;;;;4933030;29;20423;-73
2022/10/25 04:06:56;;;;;;;5.45;2.20;;;11.60;99.90;;;;;;4939055;29;20413;-74
2022/10/25 04:09:22;;;;;;;5.70;2.50;;;11.60;99.90;;;;;;4933068;29;20458;-74
2022/10/25 04:11:47;;;;;;;4.70;2.30;;;11.50;99.90;;;;;;4937105;29;20415;-73
2022/10/25 04:14:13;;;;;;;4.30;2.30;;;11.50;99.90;;;;;;4931999;29;20423;-74
2022/10/25 04:16:38;;;;;;;2.42;2.22;;;11.60;99.90;;;;;;4933876;29;20404;-73
2022/10/25 04:19:04;;;;;;;4.30;2.10;;;11.50;99.90;;;;;;4933673;29;20415;-74
2022/10/25 04:21:29;;;;;;;4.13;2.23;;;11.40;99.90;;;;;;4934971;29;20417;-73
2022/10/25 04:23:55;;;;;;;5.00;2.20;;;11.40;99.90;;;;;;4930492;29;20529;-74
2022/10/25 04:26:20;;;;;;;6.70;2.40;;;11.40;99.90;;;;;;4935299;29;20432;-74
2022/10/25 04:28:50;;;;;;;5.00;2.27;;;11.50;99.90;;;;;;4935081;29;20494;-73
2022/10/25 04:31:16;;;;;;;2.80;1.80;;;11.50;99.90;;;;;;4930302;29;20970;-73
2022/10/25 04:33:42;;;;;;;5.80;1.93;;;11.50;99.90;;;;;;4931137;29;20408;-73
2022/10/25 04:36:07;;;;;;;5.57;2.10;;;11.50;99.90;;;;;;4933996;29;20466;-74
2022/10/25 04:38:33;;;;;;;2.67;1.95;;;11.40;99.90;;;;;;4931345;29;20456;-74
2022/10/25 04:40:59;;;;;;;5.70;2.10;;;11.40;99.90;;;;;;4933310;28;20772;-74
2022/10/25 04:43:26;;;;;;;3.50;1.60;;;11.40;99.90;;;;;;4928714;29;20419;-74
2022/10/25 04:45:52;;;;;;;4.45;2.60;;;11.40;99.90;;;;;;4928840;29;20508;-73
2022/10/25 04:48:18;;;;;;;5.57;2.00;;;11.40;99.90;;;;;;4962630;23;20533;-74
2022/10/25 04:50:43;;;;;;;4.37;2.20;;;11.40;99.90;;;;;;4952743;28;20422;-74
2022/10/25 04:53:09;;;;;;;3.50;1.90;;;11.40;99.90;;;;;;4951858;28;20406;-74
2022/10/25 04:55:35;;;;;;;3.23;1.70;;;11.40;99.90;;;;;;4952628;28;20502;-74
2022/10/25 04:58:00;;;;;;;3.43;2.20;;;11.30;99.90;;;;;;4950958;28;20449;-74
2022/10/25 05:00:26;;;;;;;2.60;1.90;;;11.30;99.90;;;;;;4983415;28;20849;-74
2022/10/25 05:02:53;;;;;;;2.97;2.40;;;11.30;99.90;;;;;;4966155;28;20482;-74
2022/10/25 05:05:21;;;;;;;3.07;1.90;;;11.30;99.90;;;;;;4973384;28;20422;-75
2022/10/25 05:07:47;;;;;;;2.17;1.80;;;11.20;99.90;;;;;;4964286;28;20413;-74
2022/10/25 05:10:12;;;;;;;5.07;2.33;;;11.30;99.90;;;;;;4968723;28;20988;-75
2022/10/25 05:12:38;;;;;;;3.75;2.10;;;11.30;99.90;;;;;;4969242;28;20827;-74
2022/10/25 05:15:05;;;;;;;4.13;2.00;;;11.20;99.90;;;;;;4970416;28;20406;-75
2022/10/25 05:17:31;;;;;;;3.10;2.25;;;11.20;99.90;;;;;;4974947;28;20419;-74
2022/10/25 05:19:57;;;;;;;7.30;2.63;;;11.30;99.90;;;;;;4975505;28;20416;-74
2022/10/25 05:22:23;;;;;;;4.00;2.10;;;11.30;99.90;;;;;;4970989;28;20858;-74
2022/10/25 05:24:48;;;;;;;3.83;2.40;;;11.30;99.90;;;;;;4970873;28;20496;-74
2022/10/25 05:27:14;;;;;;;4.53;2.50;;;11.30;99.90;;;;;;4974845;28;20403;-74
2022/10/25 05:29:40;;;;;;;4.10;2.38;;;11.20;99.90;;;;;;4970477;28;20482;-75
2022/10/25 05:32:06;;;;;;;7.60;2.40;;;11.20;99.90;;;;;;4973298;28;20497;-75
2022/10/25 05:34:31;;;;;;;5.67;2.23;;;11.20;99.90;;;;;;4965904;28;20442;-75
2022/10/25 05:36:57;;;;;;;5.00;2.07;;;11.20;99.90;;;;;;4968843;28;20438;-74
2022/10/25 05:39:23;;;;;;;4.25;2.67;;;11.20;99.90;;;;;;4970405;28;20400;-74
2022/10/25 05:41:48;;;;;;;5.22;3.88;;;11.10;99.90;;;;;;4972950;28;21134;-74
2022/10/25 05:44:15;;;;;;;5.13;2.25;;;11.10;99.90;;;;;;4972090;28;20447;-74
2022/10/25 05:46:42;;;;;;;4.70;2.10;;;11.10;99.90;;;;;;4971951;28;20427;-75
2022/10/25 05:49:08;;;;;;;4.70;2.40;;;11.20;99.90;;;;;;4969339;28;20873;-74
2022/10/25 05:51:35;;;;;;;3.05;2.00;;;11.20;99.90;;;;;;4984999;28;20412;-74
2022/10/25 05:54:03;;;;;;;3.95;2.38;;;11.20;99.90;;;;;;4969616;28;20392;-75
2022/10/25 05:56:30;;;;;;;3.88;2.25;;;11.10;99.90;;;;;;4970022;28;20400;-74
2022/10/25 05:58:56;;;;;;;4.45;2.00;;;11.10;99.90;;;;;;4971293;28;20495;-75
2022/10/25 06:01:23;;;;;;;7.38;4.50;;;11.10;99.90;;;;;;4970293;28;20515;-75
2022/10/25 06:03:50;;;;;;;4.80;2.10;;;11.20;99.90;;;;;;4970700;28;20748;-74
2022/10/25 06:06:16;;;;;;;7.95;4.38;;;11.10;99.90;;;;;;4970491;28;20523;-75
2022/10/25 06:08:42;;;;;;;4.32;2.50;;;11.10;99.90;;;;;;4970550;28;20418;-74
2022/10/25 06:11:13;;;;;;;5.07;2.50;;;11.00;99.90;;;;;;4993576;28;20459;-74
2022/10/25 06:13:39;;;;;;;4.88;2.30;;;11.10;99.90;;;;;;4969399;28;20418;-74
2022/10/25 06:16:06;;;;;;;3.53;2.10;;;11.10;99.90;;;;;;4971273;28;20408;-74
2022/10/25 06:18:33;;;;;;;6.82;2.95;;;11.10;99.90;;;;;;4967311;28;20412;-74
2022/10/25 06:21:04;;;;;;;5.60;2.60;;;11.00;99.90;;;;;;4972548;28;20420;-74
2022/10/25 06:23:34;;;;;;;4.30;2.10;;;10.90;99.90;;;;;;4971154;28;20451;-74
2022/10/25 06:26:01;;;;;;;2.40;2.10;;;11.00;99.90;;;;;;4970936;28;20408;-74
2022/10/25 06:28:28;;;;;;;4.40;2.35;;;11.00;99.90;;;;;;4971048;28;20510;-74
2022/10/25 06:30:58;;;;;;;3.92;2.42;;;11.00;99.90;;;;;;4968123;28;20419;-74
2022/10/25 06:33:24;;;;;;;4.20;2.40;;;11.00;99.90;;;;;;4972912;28;20419;-74
2022/10/25 06:35:54;;;;;;;4.55;2.45;;;11.10;99.90;;;;;;4971905;28;20404;-74
2022/10/25 06:38:20;;;;;;;5.93;2.70;;;11.00;99.90;;;;;;4972159;28;20403;-74
2022/10/25 06:40:45;;;;;;;3.00;2.10;;;11.10;99.90;;;;;;4973580;28;20406;-74
2022/10/25 06:43:11;;;;;;;5.10;2.30;;;11.00;99.90;;;;;;4972874;28;20479;-74
2022/10/25 06:45:36;;;;;;;4.32;2.20;;;11.00;99.90;;;;;;4974233;28;20418;-74
2022/10/25 06:48:02;;;;;;;4.00;2.30;;;11.00;99.90;;;;;;4974018;28;20960;-73
2022/10/25 06:50:28;;;;;;;4.57;2.30;;;11.00;99.90;;;;;;4973924;28;20395;-73
2022/10/25 06:52:53;;;;;;;4.63;2.20;;;11.10;99.90;;;;;;4972292;28;20719;-74
2022/10/25 06:55:18;;;;;;;3.97;1.90;;;11.10;99.90;;;;;;4973816;28;20468;-74
2022/10/25 06:57:44;;;;;;;2.60;2.30;;;11.10;99.90;;;;;;4971115;28;20396;-74
2022/10/25 07:00:10;;;;;;;4.47;2.87;;;11.20;99.90;;;;;;4972676;28;20948;-74
2022/10/25 07:02:36;;;;;;;6.70;2.40;;;11.20;99.90;;;;;;4973653;28;20396;-74
2022/10/25 07:05:01;;;;;;;4.87;2.20;;;11.20;99.90;;;;;;4970068;28;20408;-74
2022/10/25 07:07:27;;;;;;;4.57;2.30;;;11.20;99.90;;;;;;4972309;28;20451;-74
2022/10/25 07:09:52;;;;;;;2.73;2.20;;;11.20;99.90;;;;;;4973469;28;20404;-74
2022/10/25 07:12:18;;;;;;;3.30;2.15;;;11.30;99.90;;;;;;4972878;28;20418;-74
2022/10/25 07:14:44;;;;;;;3.27;2.40;;;11.40;99.90;;;;;;4972415;28;20423;-74
2022/10/25 07:17:09;;;;;;;3.47;2.37;;;11.40;99.90;;;;;;4973455;28;20400;-74
2022/10/25 07:19:35;;;;;;;4.47;2.87;;;11.50;99.90;;;;;;4973663;28;20392;-74
2022/10/25 07:22:00;;;;;;;4.80;2.30;;;11.40;99.90;;;;;;4972145;28;20413;-74
2022/10/25 07:24:26;;;;;;;5.00;2.60;;;11.50;99.90;;;;;;4973274;28;20484;-74
2022/10/25 07:26:51;;;;;;;4.03;2.40;;;11.60;99.90;;;;;;4971780;28;20428;-74
2022/10/25 07:29:17;;;;;;;3.93;2.20;;;11.70;99.90;;;;;;4972170;28;20439;-73
2022/10/25 07:31:43;;;;;;;3.50;2.30;;;11.70;99.90;;;;;;4973924;28;20440;-74
2022/10/25 07:34:12;;;;;;;4.88;2.72;;;11.70;99.90;;;;;;4971844;28;21151;-74
2022/10/25 07:36:38;;;;;;;4.85;2.50;;;11.80;99.90;;;;;;4968722;28;20460;-74
2022/10/25 07:39:03;;;;;;;4.50;2.50;;;11.80;99.90;;;;;;4973344;28;20862;-74
2022/10/25 07:41:29;;;;;;;4.07;2.30;;;11.90;99.90;;;;;;4973759;28;20905;-74
2022/10/25 07:43:54;;;;;;;3.70;2.45;;;11.90;99.90;;;;;;4971446;28;20412;-74
2022/10/25 07:46:21;;;;;;;3.57;2.60;;;12.10;99.90;;;;;;4970372;28;20400;-74
2022/10/25 07:48:46;;;;;;;4.90;2.65;;;12.10;99.90;;;;;;4973092;28;20400;-74
2022/10/25 07:51:14;;;;;;;5.03;2.50;;;12.10;99.90;;;;;;4972790;28;20416;-74
2022/10/25 07:53:40;;;;;;;5.30;2.60;;;12.20;99.90;;;;;;4972000;28;20487;-74
2022/10/25 07:56:09;;;;;;;7.03;2.90;;;12.30;99.90;;;;;;4973554;28;20480;-74
2022/10/25 07:58:34;;;;;;;3.60;2.50;;;12.40;99.90;;;;;;4973385;28;20385;-74
2022/10/25 08:01:08;;;;;;;4.55;2.25;;;12.40;99.90;;;;;;4973195;28;20392;-74
2022/10/25 08:03:33;;;;;;;4.60;2.20;;;12.40;99.90;;;;;;4971625;28;20954;-74
2022/10/25 08:06:00;;;;;;;3.75;2.20;;;12.60;99.90;;;;;;4973354;28;20396;-74
2022/10/25 08:08:25;;;;;;;3.90;2.10;;;12.60;99.90;;;;;;4973194;28;20439;-74
2022/10/25 08:10:51;;;;;;;4.97;2.60;;;12.70;99.90;;;;;;4973189;28;20448;-74
2022/10/25 08:13:17;;;;;;;4.20;2.13;;;12.70;99.90;;;;;;4972695;28;20901;-74
2022/10/25 08:15:53;;;;;;;3.67;1.75;;;12.80;99.90;;;;;;4973124;28;20432;-74
2022/10/25 08:18:19;;;;;;;6.10;2.20;;;12.90;99.90;;;;;;4971991;28;20392;-75
2022/10/25 08:20:45;;;;;;;3.17;1.92;;;13.00;99.90;;;;;;4972482;28;20415;-74
2022/10/25 08:23:11;;;;;;;3.42;2.10;;;13.10;99.90;;;;;;4971613;28;20397;-74
2022/10/25 08:25:37;;;;;;;7.95;2.20;;;13.20;99.90;;;;;;4971694;28;20474;-74
2022/10/25 08:28:03;;;;;;;4.55;1.80;;;13.20;99.90;;;;;;4972660;28;20396;-74
2022/10/25 08:30:28;;;;;;;3.83;1.65;;;13.30;99.90;;;;;;4972895;28;20903;-74
2022/10/25 08:32:54;;;;;;;4.30;1.80;;;13.40;99.90;;;;;;4972752;28;20431;-74
2022/10/25 08:35:19;;;;;;;3.60;2.03;;;13.50;99.90;;;;;;4973131;28;20392;-74
2022/10/25 08:37:45;;;;;;;3.00;1.52;;;13.60;99.90;;;;;;4972098;28;20404;-74
2022/10/25 08:40:24;;;;;;;3.53;1.80;;;13.70;99.90;;;;;;4971395;28;20403;-74
2022/10/25 08:42:59;;;;;;;3.15;1.30;;;13.80;99.90;;;;;;4971091;28;20423;-73
2022/10/25 08:45:35;;;;;;;2.75;1.63;;;13.90;99.90;;;;;;4972829;28;20813;-73
2022/10/25 08:48:03;;;;;;;4.15;1.52;;;14.10;99.90;;;;;;4972554;28;20404;-74
2022/10/25 08:50:41;;;;;;;1.88;1.40;;;14.20;99.90;;;;;;4972089;28;20396;-73
2022/10/25 08:53:36;;;;;;;4.50;1.90;;;14.40;99.90;;;;;;4972530;28;20423;-73
2022/10/25 08:56:02;;;;;;;5.68;1.70;;;14.50;99.90;;;;;;4973463;28;20479;-74
2022/10/25 08:58:33;;;;;;;2.58;1.60;;;14.60;99.90;;;;;;4973058;28;20392;-73
2022/10/25 09:01:05;;;;;;;4.18;1.70;;;14.70;99.90;;;;;;4953883;28;20393;-73
2022/10/25 09:03:30;;;;;;;3.22;1.80;;;14.80;99.90;;;;;;4953470;28;20400;-75
2022/10/25 09:06:27;;;;;;;4.82;1.63;;;14.90;99.90;;;;;;4953742;29;20398;-73
2022/10/25 09:09:22;;;;;;;4.38;1.58;;;15.10;99.90;;;;;;4955285;28;22119;-73
2022/10/25 09:11:58;;;;;;;1.60;1.20;;;15.20;99.90;;;;;;4972632;28;20424;-73
2022/10/25 09:14:42;;;;;;;3.78;1.50;;;15.30;99.90;;;;;;4971919;28;20419;-73
2022/10/25 09:17:18;;;;;;;6.95;1.70;;;15.40;99.90;;;;;;4972352;28;20387;-73
2022/10/25 09:19:47;;;;;;;3.38;1.35;;;15.40;99.90;;;;;;4970627;28;20451;-72
2022/10/25 09:22:28;;;;;;;4.20;1.70;;;15.50;99.90;;;;;;4970634;28;20802;-72
2022/10/25 09:25:00;;;;;;;7.68;2.28;;;15.60;99.90;;;;;;4971924;28;20477;-72
2022/10/25 09:27:55;;;;;;;5.18;2.08;;;15.70;99.90;;;;;;4971810;28;20466;-72
2022/10/25 09:30:20;;;;;;;4.95;1.70;;;15.70;99.90;;;;;;4972619;28;20420;-72
2022/10/25 09:32:59;;;;;;;3.63;1.40;;;15.70;99.90;;;;;;4972130;28;20440;-72
2022/10/25 09:35:42;;;;;;;3.75;1.58;;;15.80;99.90;;;;;;4972425;28;20878;-72
2022/10/25 09:38:19;;;;;;;4.35;1.30;;;15.90;99.90;;;;;;4972096;28;20396;-72
2022/10/25 09:40:53;;;;;;;3.72;1.40;;;16.00;99.90;;;;;;4972390;28;20522;-72
2022/10/25 09:43:31;;;;;;;2.95;1.40;;;16.20;99.90;;;;;;4972011;28;20461;-72
2022/10/25 09:46:02;;;;;;;3.35;1.38;;;16.30;99.90;;;;;;4972275;28;20380;-72
2022/10/25 09:48:30;;;;;;;2.77;1.30;;;16.30;99.90;;;;;;4970333;28;20416;-73
2022/10/25 09:51:27;;;;;;;7.93;1.70;;;16.40;99.90;;;;;;4971529;28;20438;-73
2022/10/25 09:53:54;;;;;;;4.57;1.60;;;16.50;99.90;;;;;;4972276;28;20392;-73
2022/10/25 09:56:19;;;;;;;2.30;1.17;;;16.60;99.90;;;;;;4972222;28;20855;-73
2022/10/25 09:58:46;;;;;;;3.20;1.13;;;16.70;99.90;;;;;;4971441;28;20427;-73
2022/10/25 10:01:24;;;;;;;2.83;1.20;;;16.70;99.90;;;;;;4971426;28;20392;-73
2022/10/25 10:03:50;;;;;;;2.70;1.20;;;16.90;99.90;;;;;;4971100;28;20415;-73
2022/10/25 10:06:25;;;;;;;1.60;1.10;;;17.10;99.90;;;;;;4971134;28;20388;-73
2022/10/25 10:08:59;;;;;;;2.70;1.20;;;17.20;99.90;;;;;;4965683;28;20685;-73
2022/10/25 10:11:25;;;;;;;1.80;0.90;;;17.20;99.90;;;;;;4969354;28;20529;-73
2022/10/25 10:14:02;;;;;;;3.67;1.50;;;17.20;99.90;;;;;;4970854;28;20400;-73
2022/10/25 10:16:35;;;;;;;4.05;1.30;;;17.30;99.90;;;;;;4971026;28;20882;-73
2022/10/25 10:19:18;;;;;;;3.42;1.10;;;17.40;99.90;;;;;;4971300;28;20487;-74
2022/10/25 10:21:46;;;;;;;3.85;1.27;;;17.40;99.90;;;;;;4969968;28;20408;-73
2022/10/25 10:24:27;;;;;;;5.20;1.30;;;17.60;99.90;;;;;;4970755;28;20423;-73
2022/10/25 10:26:56;;;;;;;4.57;1.70;;;17.80;99.90;;;;;;4971428;28;20882;-74
2022/10/25 10:29:24;;;;;;;2.92;1.27;;;17.80;99.90;;;;;;4970614;28;20415;-73
2022/10/25 10:31:53;;;;;;;4.25;1.33;;;17.80;99.90;;;;;;4970715;28;20412;-73
2022/10/25 10:34:29;;;;;;;3.00;1.50;;;18.10;99.90;;;;;;4969654;28;20396;-73
2022/10/25 10:37:06;;;;;;;4.15;1.40;;;18.20;99.90;;;;;;4970996;28;20394;-73
2022/10/25 10:39:32;;;;;;;2.67;1.25;;;18.40;99.90;;;;;;4970539;28;20415;-73
2022/10/25 10:42:02;;;;;;;2.45;1.30;;;18.50;99.90;;;;;;4969821;28;20383;-73
2022/10/25 10:44:29;;;;;;;2.72;1.38;;;18.60;99.90;;;;;;4964059;28;20416;-73
2022/10/25 10:46:55;;;;;;;1.50;1.30;;;18.60;99.90;;;;;;4970880;28;20392;-73
2022/10/25 10:49:34;;;;;;;2.03;1.40;;;18.80;99.90;;;;;;4976158;23;20476;-72
2022/10/25 10:52:02;;;;;;;2.45;1.10;;;19.00;99.90;;;;;;4962927;28;20502;-73
2022/10/25 10:54:31;;;;;;;3.55;1.33;;;19.30;99.90;;;;;;4968250;28;20458;-73
2022/10/25 10:57:05;;;;;;;4.80;1.20;;;19.40;99.90;;;;;;4951694;28;20386;-73
2022/10/25 10:59:42;;;;;;;2.58;1.20;;;19.80;99.90;;;;;;4951389;28;20465;-73
2022/10/25 11:02:52;;;;;;;2.17;1.15;;;20.50;99.90;;;;;;4955140;28;21527;-73
2022/10/25 11:05:29;;;;;;;2.78;1.13;;;21.30;99.90;;;;;;4993652;28;20422;-73
2022/10/25 11:08:16;;;;;;;3.10;1.10;;;21.90;95.00;;;;;;4956094;28;20861;-72
2022/10/25 11:10:42;;;;;;;2.90;1.30;;;22.80;92.80;;;;;;4957885;28;20405;-72
2022/10/25 11:13:07;;;;;;;1.70;1.10;;;22.90;91.30;;;;;;4958428;28;20390;-72
2022/10/25 11:16:04;;;;;;;1.80;0.90;;;23.60;88.40;;;;;;4958376;28;20757;-72
2022/10/25 11:18:47;;;;;;;2.42;1.08;;;23.90;86.90;;;;;;4953805;29;20393;-72
2022/10/25 11:21:47;;;;;;;2.72;1.00;;;24.00;85.30;;;;;;4957380;28;20409;-72
2022/10/25 11:24:42;;;;;;;3.50;1.23;;;23.40;85.30;;;;;;4957936;29;20390;-72
2022/10/25 11:27:26;;;;;;;2.25;1.40;;;23.80;83.80;;;;;;4958496;28;20840;-72
2022/10/25 11:30:06;;;;;;;1.85;1.30;;;23.60;89.30;;;;;;4957255;28;20460;-72
2022/10/25 11:33:08;;;;;;;4.32;0.75;;;23.90;79.60;;;;;;4939321;28;20446;-75
2022/10/25 11:36:07;;;;;;;2.20;0.70;;;23.90;71.60;;;;;;4952580;29;20401;-72
2022/10/25 11:39:00;;;;;;;1.70;0.75;;;25.00;71.10;;;;;;4958550;28;20405;-73
2022/10/25 11:41:43;;;;;;;2.75;1.23;;;24.80;73.40;;;;;;4958932;28;20502;-73
2022/10/25 11:44:49;;;;;;;2.50;1.00;;;24.50;69.30;;;;;;4958429;28;20408;-72
2022/10/25 11:47:25;;;;;;;3.00;1.10;;;24.30;75.40;;;;;;4956984;28;20491;-72
2022/10/25 11:50:21;;;;;;;1.70;0.70;;;24.30;70.90;;;;;;4957535;28;20456;-73
2022/10/25 11:53:00;;;;;;;1.88;0.90;;;24.50;74.60;;;;;;4958589;28;20420;-73
2022/10/25 11:55:53;;;;;;;2.63;1.00;;;25.50;67.20;;;;;;4961881;28;20405;-73
2022/10/25 11:58:27;;;;;;;1.30;0.50;;;26.00;61.60;;;;;;4967807;28;20420;-73
2022/10/25 12:01:05;;;;;;;1.50;0.70;;;25.60;59.80;;;;;;4957085;28;20478;-73
2022/10/25 12:03:36;;;;;;;0.90;0.40;;;25.20;62.10;;;;;;4958757;28;20422;-73
2022/10/25 12:06:30;;;;;;;1.30;0.80;;;25.30;60.50;;;;;;4958468;28;20440;-72
2022/10/25 12:09:17;;;;;;;1.65;0.65;;;25.20;61.30;;;;;;4958395;28;20788;-73
2022/10/25 12:11:48;;;;;;;1.20;0.63;;;24.60;66.10;;;;;;4947108;28;20788;-73
2022/10/25 12:14:22;;;;;;;1.50;0.80;;;25.00;61.10;;;;;;4949942;29;20439;-71
2022/10/25 12:16:48;;;;;;;1.45;0.70;;;24.90;62.40;;;;;;4949730;28;20414;-72
2022/10/25 12:19:21;;;;;;;0.88;0.60;;;24.60;67.30;;;;;;4953211;29;20417;-73
2022/10/25 12:22:00;;;;;;;1.95;0.80;;;23.80;66.60;;;;;;4960574;28;20409;-73
2022/10/25 12:24:33;;;;;;;1.88;0.98;;;23.40;68.00;;;;;;4977240;28;20401;-72
2022/10/25 12:26:59;;;;;;;2.70;0.70;;;23.00;68.70;;;;;;4959040;28;20413;-72
2022/10/25 12:29:45;;;;;;;1.20;0.60;;;22.50;70.00;;;;;;4955793;29;20974;-72
2022/10/25 12:32:17;;;;;;;2.05;0.57;;;22.60;67.70;;;;;;4953865;28;20786;-72
2022/10/25 12:34:48;;;;;;;2.17;0.50;;;22.50;71.80;;;;;;4954238;29;20406;-71
2022/10/25 12:37:22;;;;;;;0.90;0.50;;;22.50;65.90;;;;;;4955655;29;20406;-72
2022/10/25 12:39:47;;;;;;;1.50;0.50;;;22.10;65.10;;;;;;4957389;28;20429;-72
2022/10/25 12:42:27;;;;;;;0.90;0.50;;;21.90;63.00;;;;;;4957644;28;20429;-72
2022/10/25 12:45:22;;;;;;;1.63;0.50;;;21.80;62.70;;;;;;4956942;28;20416;-71
2022/10/25 12:48:09;;;;;;;1.80;0.52;;;21.80;66.40;;;;;;4954250;28;20429;-71
2022/10/25 12:51:02;;;;;;;1.40;0.60;;;22.00;64.10;;;;;;4956888;28;20417;-72
2022/10/25 12:53:33;;;;;;;1.30;0.50;;;21.90;66.10;;;;;;4955802;28;20400;-72
2022/10/25 12:56:22;;;;;;;1.50;0.60;;;22.00;63.90;;;;;;4959559;28;20441;-72
2022/10/25 12:59:07;;;;;;;0.90;0.80;;;22.50;61.90;;;;;;4954064;28;20433;-73
2022/10/25 13:01:40;;;;;;;0.82;0.32;;;22.40;62.90;;;;;;4954560;28;20404;-72
2022/10/25 13:04:27;;;;;;;2.10;0.40;;;22.30;60.80;;;;;;4954280;28;20464;-73
2022/10/25 13:06:54;;;;;;;0.70;0.40;;;22.60;59.80;;;;;;4954748;28;20409;-72
2022/10/25 13:09:21;;;;;;;1.10;0.40;;;22.40;63.50;;;;;;4954128;28;20390;-71
2022/10/25 13:12:15;;;;;;;1.20;0.50;;;22.50;60.90;;;;;;4954659;28;20456;-72